KCAK/CAK METAR and TAF weather

Enter ICAO airport designator
Station Type Date Time Source
KCAK METAR 2022/01/26 07:51 UTC NOAA

KCAK 260751Z 28006KT 5SM -SN BKN030 M12/M15 A3024 RMK AO2 SNE13B47 SLP261 P0000 I1000 T11221150


Station Type Date Time Source
KCAK Decoded METAR 2022/01/26 07:51 UTC NOAA

AKRON-CANTON REGIONAL AIRPORT , OH, United States (KCAK) 40-55N 081-27W 377M
Jan 26, 2022 - 02:51 AM EST / 2022.01.26 0751 UTC
Wind: from the W (280 degrees) at 7 MPH (6 KT):0
Visibility: 5 mile(s):0
Sky conditions: mostly cloudy
Weather: light snow
Precipitation last hour: A trace
Temperature: 10.0 F (-12.2 C)
Windchill: 0 F (-18 C):1
Dew Point: 5.0 F (-15.0 C)
Relative Humidity: 79%
Pressure (altimeter): 30.24 in. Hg (1024 hPa)
ob: KCAK 260751Z 28006KT 5SM -SN BKN030 M12/M15 A3024 RMK AO2 SNE13B47 SLP261 P0000 I1000 T11221150
cycle: 8

Station Type Date Time Source
KCAK TAF 2022/01/26 08:57 UTC NOAA

TAF
AMD KCAK 260754Z 2608/2706 25005KT P6SM BKN035
TEMPO 2608/2610 5SM -SHSN BKN025
FM261700 29006KT P6SM BKN035
FM262200 VRB03KT P6SM SCT250

Example: see airport list